Elliotsville, Alabama
Current Conditions -  °F | °C
As of 11:53 PM on Tuesday 25 Nov 2014 (Local Time) from KEET Reporting Station
Overcast Overcast  
Wind Chill: 43°   Ceiling: 9000
Heat Index: 47°   Visibility: 10mi
Dew Point: 30°   Wind: 9mph
Humidity: 52%   Direction: 350°N
Pressure: 30.1"   Gusts: NA
Location:  33.2442°N, 86.8166°W
Report Text: KEET 260553Z AUTO 35008KT 10SM OVC090 08/M01 A3010 RMK AO2 SLP191 T00831011 10122 20083 401610072 57010
Loading
Personal Weather Stations






























Interactive Weather Map New forecast layout! Learn more

10-Day Weather Forecast

Advertisements
Track Severe Weather on mobile